createdAt,value
2023-04-27T00:00:11.880Z,3.63
2023-04-27T00:00:36.809Z,3.55
2023-04-27T00:01:02.261Z,3.40
2023-04-27T00:01:24.979Z,3.65
2023-04-27T00:01:47.854Z,3.72
2023-04-27T00:02:13.305Z,3.55
2023-04-27T00:02:36.210Z,3.80
2023-04-27T00:03:05.875Z,3.80
2023-04-27T00:03:31.336Z,3.33
2023-04-27T00:03:55.016Z,3.75
2023-04-27T00:04:20.592Z,3.47
2023-04-27T00:04:44.996Z,3.53
2023-04-27T00:05:11.209Z,3.80
2023-04-27T00:05:36.281Z,3.45
2023-04-27T00:06:01.441Z,3.60
2023-04-27T00:06:26.793Z,3.67
2023-04-27T00:06:52.323Z,3.70
2023-04-27T00:07:16.124Z,3.65
2023-04-27T00:07:41.289Z,3.72
2023-04-27T00:08:04.318Z,3.70
2023-04-27T00:08:29.207Z,3.40
2023-04-27T00:08:51.998Z,3.50
2023-04-27T00:09:15.146Z,3.67
2023-04-27T00:09:38.157Z,3.70
2023-04-27T00:10:03.263Z,3.42
2023-04-27T00:10:27.443Z,3.50
2023-04-27T00:10:52.465Z,3.80
2023-04-27T00:11:17.332Z,3.80
2023-04-27T00:11:40.226Z,3.72
2023-04-27T00:12:05.332Z,3.75
2023-04-27T00:12:28.114Z,3.50
2023-04-27T00:12:50.966Z,3.38
2023-04-27T00:13:16.008Z,3.63
2023-04-27T00:13:41.932Z,3.78
2023-04-27T00:14:04.797Z,3.45
2023-04-27T00:14:30.823Z,3.65
2023-04-27T00:14:53.608Z,3.45
2023-04-27T00:15:16.426Z,3.45
2023-04-27T00:15:41.362Z,3.63
2023-04-27T00:16:07.310Z,3.60
2023-04-27T00:16:30.257Z,3.60
2023-04-27T00:16:55.537Z,3.53
2023-04-27T00:17:18.247Z,3.70
2023-04-27T00:17:42.354Z,3.80
2023-04-27T00:18:05.241Z,3.92
2023-04-27T00:18:30.244Z,3.70
2023-04-27T00:18:55.208Z,3.70
2023-04-27T00:19:20.492Z,3.55
2023-04-27T00:19:45.713Z,3.70
2023-04-27T00:20:12.042Z,3.75
2023-04-27T00:20:34.867Z,3.88
2023-04-27T00:20:57.756Z,4.00
2023-04-27T00:21:20.850Z,3.53
2023-04-27T00:21:43.539Z,3.60
2023-04-27T00:22:06.484Z,3.58
2023-04-27T00:22:29.331Z,3.55
2023-04-27T00:22:52.047Z,3.63
2023-04-27T00:23:14.802Z,3.60
2023-04-27T00:23:37.627Z,3.50
2023-04-27T00:24:00.372Z,3.50
2023-04-27T00:24:23.156Z,3.38
2023-04-27T00:24:46.267Z,3.40
2023-04-27T00:25:09.757Z,3.45
2023-04-27T00:25:33.937Z,3.38
2023-04-27T00:25:56.792Z,3.38
2023-04-27T00:26:20.028Z,3.40
2023-04-27T00:26:42.808Z,3.50
2023-04-27T00:27:06.100Z,3.70
2023-04-27T00:27:28.902Z,3.90
2023-04-27T00:27:51.672Z,3.90
2023-04-27T00:28:14.582Z,3.50
2023-04-27T00:28:37.368Z,3.53
2023-04-27T00:29:00.136Z,3.70
2023-04-27T00:29:22.861Z,3.50
2023-04-27T00:29:45.723Z,3.53
2023-04-27T00:30:10.254Z,3.67
2023-04-27T00:30:33.013Z,3.83
2023-04-27T00:30:56.191Z,3.58
2023-04-27T00:31:18.994Z,3.40
2023-04-27T00:31:44.296Z,3.58
2023-04-27T00:32:07.950Z,3.38
2023-04-27T00:32:31.132Z,3.20
2023-04-27T00:32:54.007Z,3.30
2023-04-27T00:33:17.484Z,3.65
2023-04-27T00:33:40.315Z,3.75
2023-04-27T00:34:05.297Z,3.65
2023-04-27T00:34:28.021Z,3.42
2023-04-27T00:34:53.038Z,3.60
2023-04-27T00:35:18.947Z,3.38
2023-04-27T00:35:41.659Z,3.55
2023-04-27T00:36:04.882Z,3.40
2023-04-27T00:36:29.129Z,3.40
2023-04-27T00:36:54.472Z,3.50
2023-04-27T00:37:19.687Z,3.40
2023-04-27T00:37:42.501Z,3.38
2023-04-27T00:38:07.696Z,3.63
2023-04-27T00:38:31.176Z,3.40
2023-04-27T00:38:54.272Z,3.25
2023-04-27T00:39:17.287Z,3.15
2023-04-27T00:39:40.041Z,3.40
2023-04-27T00:40:06.802Z,3.40
2023-04-27T00:40:32.825Z,3.40
2023-04-27T00:41:02.810Z,3.42
2023-04-27T00:41:25.653Z,3.35
2023-04-27T00:41:50.581Z,3.47
2023-04-27T00:42:16.517Z,3.53
2023-04-27T00:42:39.204Z,3.47
2023-04-27T00:43:01.908Z,3.30
2023-04-27T00:43:24.813Z,3.33
2023-04-27T00:43:49.675Z,3.30
2023-04-27T00:44:12.357Z,3.60
2023-04-27T00:44:39.650Z,3.33
2023-04-27T00:45:03.495Z,3.90
2023-04-27T00:45:28.727Z,3.22
2023-04-27T00:45:52.240Z,3.42
2023-04-27T00:46:17.142Z,3.20
2023-04-27T00:46:39.891Z,3.40
2023-04-27T00:47:05.122Z,3.20
2023-04-27T00:47:30.571Z,3.72
2023-04-27T00:47:55.906Z,3.40
2023-04-27T00:48:18.729Z,3.20
2023-04-27T00:48:41.788Z,3.42
2023-04-27T00:49:04.490Z,3.15
2023-04-27T00:49:30.398Z,3.30
2023-04-27T00:49:55.966Z,3.33
2023-04-27T00:50:19.372Z,3.50
2023-04-27T00:50:44.401Z,3.20
2023-04-27T00:51:07.303Z,3.40
2023-04-27T00:51:33.086Z,3.55
2023-04-27T00:51:56.410Z,3.33
2023-04-27T00:52:19.276Z,3.40
2023-04-27T00:52:42.049Z,3.25
2023-04-27T00:53:05.447Z,3.80
2023-04-27T00:53:28.263Z,3.20
2023-04-27T00:53:53.510Z,3.42
2023-04-27T00:54:16.447Z,3.35
2023-04-27T00:54:39.200Z,3.88
2023-04-27T00:55:05.137Z,3.60
2023-04-27T00:55:27.851Z,3.40
2023-04-27T00:55:53.069Z,3.70
2023-04-27T00:56:17.352Z,3.45
2023-04-27T00:56:40.163Z,3.55
2023-04-27T00:57:04.230Z,3.60
2023-04-27T00:57:27.157Z,3.25
2023-04-27T00:57:49.920Z,3.47
2023-04-27T00:58:12.685Z,3.38
2023-04-27T00:58:35.382Z,3.22
2023-04-27T00:59:01.328Z,3.40
2023-04-27T00:59:24.160Z,3.30
2023-04-27T00:59:47.143Z,3.38
2023-04-27T01:00:13.576Z,3.22
2023-04-27T01:00:36.570Z,3.00
2023-04-27T01:00:59.532Z,3.55
2023-04-27T01:01:22.297Z,3.53
2023-04-27T01:01:45.214Z,3.45
2023-04-27T01:02:08.118Z,3.63
2023-04-27T01:02:31.179Z,3.30
2023-04-27T01:02:54.430Z,3.42
2023-04-27T01:03:17.755Z,3.40
2023-04-27T01:03:42.154Z,3.20
2023-04-27T01:04:05.369Z,3.30
2023-04-27T01:04:28.860Z,3.60
2023-04-27T01:04:52.235Z,3.63
2023-04-27T01:05:15.036Z,3.40
2023-04-27T01:05:38.381Z,3.47
2023-04-27T01:06:01.942Z,3.60
2023-04-27T01:06:24.943Z,3.53
2023-04-27T01:06:48.082Z,3.58
2023-04-27T01:07:11.227Z,3.40
2023-04-27T01:07:33.931Z,3.60
2023-04-27T01:07:56.648Z,3.40
2023-04-27T01:08:22.587Z,3.70
2023-04-27T01:08:46.687Z,3.33
2023-04-27T01:09:09.540Z,3.25
2023-04-27T01:09:34.874Z,3.45
2023-04-27T01:09:57.670Z,3.40
2023-04-27T01:10:20.671Z,3.10
2023-04-27T01:10:43.910Z,3.50
2023-04-27T01:11:07.030Z,3.75
2023-04-27T01:11:31.474Z,3.45
2023-04-27T01:11:54.378Z,3.78
2023-04-27T01:12:17.104Z,3.50
2023-04-27T01:12:39.908Z,3.55
2023-04-27T01:13:02.637Z,3.50
2023-04-27T01:13:25.326Z,3.50
2023-04-27T01:13:48.013Z,3.45
2023-04-27T01:14:11.430Z,3.40
2023-04-27T01:14:34.170Z,3.08
2023-04-27T01:14:57.014Z,3.22
2023-04-27T01:15:19.795Z,3.33
2023-04-27T01:15:45.120Z,3.60
2023-04-27T01:16:07.797Z,3.78
2023-04-27T01:16:32.856Z,3.55
2023-04-27T01:16:55.641Z,3.42
2023-04-27T01:17:18.494Z,3.13
2023-04-27T01:17:43.816Z,3.17
2023-04-27T01:18:06.758Z,3.50
2023-04-27T01:18:29.581Z,3.20
2023-04-27T01:18:54.762Z,3.65
2023-04-27T01:19:19.719Z,3.83
2023-04-27T01:19:42.512Z,3.70
2023-04-27T01:20:10.437Z,3.53
2023-04-27T01:20:35.565Z,3.22
2023-04-27T01:20:58.424Z,3.25
2023-04-27T01:21:21.789Z,3.47
2023-04-27T01:21:46.671Z,3.40
2023-04-27T01:22:09.490Z,3.40
2023-04-27T01:22:32.220Z,3.60
2023-04-27T01:22:54.952Z,3.50
2023-04-27T01:23:19.041Z,3.47
2023-04-27T01:23:41.859Z,3.33
2023-04-27T01:24:08.670Z,3.50
2023-04-27T01:24:31.439Z,3.28
2023-04-27T01:24:54.169Z,3.45
2023-04-27T01:25:20.178Z,3.63
2023-04-27T01:25:43.189Z,3.40
2023-04-27T01:26:05.931Z,3.40
2023-04-27T01:26:28.746Z,3.38
2023-04-27T01:26:53.959Z,3.42
2023-04-27T01:27:16.657Z,3.80
2023-04-27T01:27:42.520Z,3.65
2023-04-27T01:28:05.548Z,3.70
2023-04-27T01:28:28.314Z,3.45
2023-04-27T01:28:51.676Z,3.33
2023-04-27T01:29:14.758Z,3.42
2023-04-27T01:29:40.098Z,3.67
2023-04-27T01:30:03.622Z,3.70
2023-04-27T01:30:28.620Z,3.38
2023-04-27T01:30:51.390Z,3.60
2023-04-27T01:31:16.633Z,3.40
2023-04-27T01:31:42.409Z,3.60
2023-04-27T01:32:05.935Z,3.60
2023-04-27T01:32:30.896Z,3.47
2023-04-27T01:32:53.869Z,3.55
2023-04-27T01:33:16.882Z,3.55
2023-04-27T01:33:39.684Z,3.40
2023-04-27T01:34:02.481Z,3.58
2023-04-27T01:34:28.006Z,3.60
2023-04-27T01:34:50.808Z,3.70
2023-04-27T01:35:13.512Z,3.80
2023-04-27T01:35:36.242Z,3.70
2023-04-27T01:36:01.500Z,3.63
2023-04-27T01:36:24.566Z,3.65
2023-04-27T01:36:49.517Z,3.72
2023-04-27T01:37:12.300Z,3.63
2023-04-27T01:37:35.206Z,3.80
2023-04-27T01:37:57.961Z,3.63
2023-04-27T01:38:24.254Z,3.50
2023-04-27T01:38:46.982Z,3.58
2023-04-27T01:39:10.093Z,3.70
2023-04-27T01:39:33.276Z,3.30
2023-04-27T01:39:56.012Z,3.38
2023-04-27T01:40:18.956Z,3.50
2023-04-27T01:40:41.786Z,3.70
2023-04-27T01:41:05.151Z,3.88
2023-04-27T01:41:27.887Z,3.50
2023-04-27T01:41:51.239Z,3.60
2023-04-27T01:42:13.992Z,3.45
2023-04-27T01:42:36.741Z,3.47
2023-04-27T01:42:59.443Z,3.67
2023-04-27T01:43:24.465Z,3.58
2023-04-27T01:43:47.271Z,3.65
2023-04-27T01:44:10.101Z,3.55
2023-04-27T01:44:32.961Z,3.70
2023-04-27T01:44:55.784Z,3.33
2023-04-27T01:45:18.634Z,3.47
2023-04-27T01:45:44.168Z,3.70
2023-04-27T01:46:07.942Z,3.40
2023-04-27T01:46:30.989Z,3.45
2023-04-27T01:46:56.268Z,3.65
2023-04-27T01:47:19.104Z,3.40
2023-04-27T01:47:41.812Z,3.78
2023-04-27T01:48:07.326Z,3.50
2023-04-27T01:48:30.088Z,3.60
2023-04-27T01:48:52.860Z,3.72
2023-04-27T01:49:16.192Z,3.67
2023-04-27T01:49:39.267Z,3.70
2023-04-27T01:50:02.058Z,3.30
2023-04-27T01:50:27.234Z,3.33
2023-04-27T01:50:50.082Z,3.40
2023-04-27T01:51:12.847Z,3.35
2023-04-27T01:51:35.916Z,3.35
2023-04-27T01:51:58.637Z,3.30
2023-04-27T01:52:21.387Z,3.40
2023-04-27T01:52:44.234Z,3.40
2023-04-27T01:53:06.982Z,3.50
2023-04-27T01:53:33.605Z,3.30
2023-04-27T01:53:56.410Z,3.42
2023-04-27T01:54:19.255Z,3.60
2023-04-27T01:54:42.049Z,3.30
2023-04-27T01:55:05.673Z,3.47
2023-04-27T01:55:28.486Z,3.20
2023-04-27T01:55:51.870Z,3.42
2023-04-27T01:56:14.712Z,3.60
2023-04-27T01:56:37.499Z,3.13
2023-04-27T01:57:01.770Z,3.40
2023-04-27T01:57:26.856Z,3.25
2023-04-27T01:57:49.687Z,3.25
2023-04-27T01:58:14.678Z,3.13
2023-04-27T01:58:37.491Z,3.20
2023-04-27T01:59:00.337Z,3.20
2023-04-27T01:59:23.048Z,3.30
2023-04-27T01:59:45.870Z,3.45
2023-04-27T02:00:10.348Z,3.40
2023-04-27T02:00:33.161Z,3.10
2023-04-27T02:00:55.997Z,3.25
2023-04-27T02:01:21.002Z,3.00
2023-04-27T02:01:43.888Z,3.50
2023-04-27T02:02:09.751Z,3.30
2023-04-27T02:02:35.174Z,3.20
2023-04-27T02:03:00.582Z,3.17
2023-04-27T02:03:24.075Z,3.20
2023-04-27T02:03:47.312Z,3.47
2023-04-27T02:04:11.227Z,3.42
2023-04-27T02:04:36.698Z,3.20
2023-04-27T02:04:59.765Z,3.22
2023-04-27T02:05:22.708Z,3.60
2023-04-27T02:05:48.425Z,3.53
2023-04-27T02:06:11.415Z,3.50
2023-04-27T02:06:36.412Z,3.20
2023-04-27T02:06:59.108Z,3.17
2023-04-27T02:07:21.830Z,3.17
2023-04-27T02:07:44.548Z,3.70
2023-04-27T02:08:07.375Z,4.10
2023-04-27T02:08:31.625Z,3.90
2023-04-27T02:08:54.391Z,3.92
2023-04-27T02:09:19.532Z,3.95
2023-04-27T02:09:42.260Z,3.72
2023-04-27T02:10:06.252Z,3.80
2023-04-27T02:10:29.218Z,3.60
2023-04-27T02:10:52.066Z,3.95
2023-04-27T02:11:14.860Z,3.80
2023-04-27T02:11:37.566Z,3.75
2023-04-27T02:12:00.823Z,3.53
2023-04-27T02:12:23.561Z,3.25
2023-04-27T02:12:46.572Z,3.70
2023-04-27T02:13:09.943Z,3.60
2023-04-27T02:13:32.737Z,3.53
2023-04-27T02:13:57.933Z,3.70
2023-04-27T02:14:20.744Z,3.72
2023-04-27T02:14:43.497Z,3.33
2023-04-27T02:15:11.799Z,3.40
2023-04-27T02:15:35.537Z,3.60
2023-04-27T02:15:58.362Z,3.60
2023-04-27T02:16:21.328Z,3.20
2023-04-27T02:16:44.128Z,3.28
2023-04-27T02:17:07.015Z,3.55
2023-04-27T02:17:32.052Z,3.53
2023-04-27T02:17:57.375Z,3.38
2023-04-27T02:18:22.573Z,3.40
2023-04-27T02:18:45.308Z,3.50
2023-04-27T02:19:10.246Z,3.42
2023-04-27T02:19:33.058Z,3.30
2023-04-27T02:19:55.751Z,3.55
2023-04-27T02:20:21.843Z,3.47
2023-04-27T02:20:44.680Z,3.60
2023-04-27T02:21:11.621Z,3.70
2023-04-27T02:21:34.406Z,3.42
2023-04-27T02:21:59.294Z,3.15
2023-04-27T02:22:24.305Z,3.55
2023-04-27T02:22:47.148Z,3.45
2023-04-27T02:23:12.449Z,3.58
2023-04-27T02:23:37.143Z,3.42
2023-04-27T02:23:59.944Z,3.33
2023-04-27T02:24:24.903Z,3.40
2023-04-27T02:24:49.843Z,3.38
2023-04-27T02:25:16.051Z,3.45
2023-04-27T02:25:39.382Z,3.42
2023-04-27T02:26:05.387Z,3.50
2023-04-27T02:26:30.959Z,3.38
2023-04-27T02:26:53.727Z,3.60
2023-04-27T02:27:18.945Z,3.60
2023-04-27T02:27:42.292Z,3.30
2023-04-27T02:28:06.631Z,3.23
2023-04-27T02:28:32.387Z,3.80
2023-04-27T02:28:56.820Z,3.22
2023-04-27T02:29:20.297Z,3.30
2023-04-27T02:29:46.413Z,3.80
2023-04-27T02:30:12.753Z,3.40
2023-04-27T02:30:37.445Z,3.50
2023-04-27T02:31:03.257Z,3.55
2023-04-27T02:31:26.604Z,3.40
2023-04-27T02:31:51.916Z,3.40
2023-04-27T02:32:14.717Z,3.20
2023-04-27T02:32:39.966Z,3.45
2023-04-27T02:33:02.849Z,3.33
2023-04-27T02:33:25.620Z,3.17
2023-04-27T02:33:51.607Z,3.50
2023-04-27T02:34:16.519Z,3.45
2023-04-27T02:34:41.474Z,3.17
2023-04-27T02:35:06.920Z,3.50
2023-04-27T02:35:29.661Z,3.40
2023-04-27T02:35:52.541Z,3.10
2023-04-27T02:36:15.521Z,3.20
2023-04-27T02:36:38.258Z,3.88
2023-04-27T02:37:01.037Z,4.10
2023-04-27T02:37:26.238Z,3.75
2023-04-27T02:37:48.965Z,3.58
2023-04-27T02:38:14.237Z,3.28
2023-04-27T02:38:38.423Z,3.83
2023-04-27T02:39:03.887Z,3.67
2023-04-27T02:39:26.965Z,3.60
2023-04-27T02:39:49.954Z,3.50
2023-04-27T02:40:16.168Z,3.55
2023-04-27T02:40:39.038Z,3.53
2023-04-27T02:41:03.948Z,3.67
2023-04-27T02:41:28.783Z,3.85
2023-04-27T02:41:51.521Z,3.55
2023-04-27T02:42:16.517Z,3.55
2023-04-27T02:42:39.473Z,3.90
2023-04-27T02:43:04.403Z,3.85
2023-04-27T02:43:27.207Z,3.80
2023-04-27T02:43:53.921Z,3.90
2023-04-27T02:44:16.914Z,3.90
2023-04-27T02:44:40.680Z,3.83
2023-04-27T02:45:03.686Z,3.60
2023-04-27T02:45:26.551Z,3.60
2023-04-27T02:45:49.283Z,3.58
2023-04-27T02:46:14.507Z,3.78
2023-04-27T02:46:37.471Z,3.60
2023-04-27T02:47:00.704Z,3.67
2023-04-27T02:47:23.844Z,3.70
2023-04-27T02:47:46.737Z,3.55
2023-04-27T02:48:09.564Z,3.47
2023-04-27T02:48:32.517Z,3.60
2023-04-27T02:48:56.861Z,3.22
2023-04-27T02:49:19.587Z,3.60
2023-04-27T02:49:42.347Z,3.65
2023-04-27T02:50:06.278Z,3.50
2023-04-27T02:50:28.980Z,3.22
2023-04-27T02:50:52.036Z,3.70
2023-04-27T02:51:14.816Z,3.65
2023-04-27T02:51:39.760Z,3.63
2023-04-27T02:52:02.749Z,3.40
2023-04-27T02:52:25.575Z,3.42
2023-04-27T02:52:50.515Z,3.40
2023-04-27T02:53:14.108Z,3.30
2023-04-27T02:53:38.292Z,3.63
2023-04-27T02:54:01.475Z,3.60
2023-04-27T02:54:26.981Z,3.60
2023-04-27T02:54:49.754Z,3.50
2023-04-27T02:55:14.700Z,3.30
2023-04-27T02:55:37.902Z,3.58
2023-04-27T02:56:03.168Z,3.50
2023-04-27T02:56:26.078Z,3.40
2023-04-27T02:56:48.990Z,3.33
2023-04-27T02:57:11.864Z,3.30
2023-04-27T02:57:34.627Z,3.30
2023-04-27T02:57:57.299Z,3.90
2023-04-27T02:58:22.610Z,3.45
2023-04-27T02:58:47.839Z,3.40
2023-04-27T02:59:10.845Z,3.33
2023-04-27T02:59:33.763Z,3.45
2023-04-27T02:59:56.775Z,3.53
2023-04-27T03:00:19.943Z,3.63
2023-04-27T03:00:42.954Z,3.42
2023-04-27T03:01:05.954Z,3.60
2023-04-27T03:01:28.852Z,3.80
2023-04-27T03:01:51.739Z,3.58
2023-04-27T03:02:14.647Z,3.40
2023-04-27T03:02:37.749Z,3.42
2023-04-27T03:03:00.997Z,3.70
2023-04-27T03:03:26.513Z,3.67
2023-04-27T03:03:50.061Z,3.63
2023-04-27T03:04:15.103Z,3.33
2023-04-27T03:04:38.818Z,3.50
2023-04-27T03:05:02.007Z,3.72
2023-04-27T03:05:28.981Z,3.60
2023-04-27T03:05:51.769Z,3.67
2023-04-27T03:06:14.566Z,3.58
2023-04-27T03:06:37.444Z,3.53
2023-04-27T03:07:00.195Z,3.30
2023-04-27T03:07:23.096Z,3.25
2023-04-27T03:07:46.110Z,3.30
2023-04-27T03:08:08.893Z,3.30
2023-04-27T03:08:32.184Z,3.63
2023-04-27T03:08:56.522Z,3.47
2023-04-27T03:09:19.291Z,3.45
2023-04-27T03:09:44.444Z,3.58
2023-04-27T03:10:08.418Z,3.40
2023-04-27T03:10:31.283Z,3.70
2023-04-27T03:10:56.276Z,3.45
2023-04-27T03:11:19.161Z,3.40
2023-04-27T03:11:41.933Z,3.85
2023-04-27T03:12:05.249Z,3.70
2023-04-27T03:12:28.094Z,3.33
2023-04-27T03:12:51.425Z,3.63
2023-04-27T03:13:15.710Z,3.67
2023-04-27T03:13:47.281Z,3.70
2023-04-27T03:14:10.203Z,3.75
2023-04-27T03:14:35.505Z,3.70
2023-04-27T03:14:59.748Z,3.70
2023-04-27T03:15:22.778Z,3.72
2023-04-27T03:15:46.103Z,3.30
2023-04-27T03:16:10.486Z,3.60
2023-04-27T03:16:33.457Z,3.70
2023-04-27T03:16:57.574Z,3.78
2023-04-27T03:17:20.541Z,3.60
2023-04-27T03:17:43.415Z,3.38
2023-04-27T03:18:06.662Z,3.45
2023-04-27T03:18:29.454Z,3.38
2023-04-27T03:18:55.049Z,3.42
2023-04-27T03:19:17.949Z,3.80
2023-04-27T03:19:41.328Z,3.90
2023-04-27T03:20:08.852Z,3.83
2023-04-27T03:20:32.224Z,3.75
2023-04-27T03:20:54.959Z,3.55
2023-04-27T03:21:17.824Z,3.70
2023-04-27T03:21:42.704Z,3.80
2023-04-27T03:22:05.512Z,3.70
2023-04-27T03:22:28.816Z,3.95
2023-04-27T03:22:51.599Z,3.70
2023-04-27T03:23:14.416Z,4.05
2023-04-27T03:23:37.260Z,3.85
2023-04-27T03:24:01.535Z,3.70
2023-04-27T03:24:25.826Z,3.40
2023-04-27T03:24:48.805Z,3.72
2023-04-27T03:25:11.557Z,3.72
2023-04-27T03:25:34.589Z,3.63
2023-04-27T03:25:57.370Z,3.60
2023-04-27T03:26:23.385Z,3.50
2023-04-27T03:26:46.289Z,3.90
2023-04-27T03:27:09.045Z,3.90
2023-04-27T03:27:31.865Z,3.90
2023-04-27T03:27:57.766Z,3.58
2023-04-27T03:28:20.635Z,3.53
2023-04-27T03:28:46.643Z,3.78
2023-04-27T03:29:10.278Z,3.80
2023-04-27T03:29:33.024Z,4.20
2023-04-27T03:29:55.850Z,3.80
2023-04-27T03:30:18.790Z,3.70
2023-04-27T03:30:41.602Z,3.90
2023-04-27T03:31:06.436Z,3.40
2023-04-27T03:31:29.279Z,3.85
2023-04-27T03:31:54.614Z,3.85
2023-04-27T03:32:17.411Z,3.97
2023-04-27T03:32:40.220Z,3.60
2023-04-27T03:33:03.671Z,3.47
2023-04-27T03:33:30.121Z,3.38
2023-04-27T03:33:52.925Z,3.58
2023-04-27T03:34:16.178Z,3.65
2023-04-27T03:34:39.002Z,3.67
2023-04-27T03:35:03.094Z,3.50
2023-04-27T03:35:26.313Z,3.50
2023-04-27T03:35:57.868Z,3.25
2023-04-27T03:36:21.299Z,3.92
2023-04-27T03:36:44.118Z,3.97
2023-04-27T03:37:07.414Z,3.83
2023-04-27T03:37:30.170Z,3.67
2023-04-27T03:37:52.959Z,3.50
2023-04-27T03:38:15.753Z,3.63
2023-04-27T03:38:38.557Z,3.60
2023-04-27T03:39:03.233Z,3.45
2023-04-27T03:39:26.167Z,3.80
2023-04-27T03:39:48.968Z,3.92
2023-04-27T03:40:14.562Z,3.70
2023-04-27T03:40:37.275Z,3.88
2023-04-27T03:41:00.091Z,4.25
2023-04-27T03:41:22.885Z,4.18
2023-04-27T03:41:45.689Z,4.05
2023-04-27T03:42:08.484Z,4.22
2023-04-27T03:42:31.200Z,3.85
2023-04-27T03:42:54.138Z,3.53
2023-04-27T03:43:17.076Z,3.78
2023-04-27T03:43:39.812Z,4.00
2023-04-27T03:44:02.640Z,3.90
2023-04-27T03:44:25.514Z,4.03
2023-04-27T03:44:48.246Z,4.00
2023-04-27T03:45:12.618Z,4.05
2023-04-27T03:45:35.477Z,4.30
2023-04-27T03:46:01.564Z,4.18
2023-04-27T03:46:24.513Z,4.38
2023-04-27T03:46:47.263Z,4.50
2023-04-27T03:47:10.596Z,4.45
2023-04-27T03:47:33.378Z,4.38
2023-04-27T03:47:56.359Z,4.03
2023-04-27T03:48:19.092Z,4.45
2023-04-27T03:48:44.044Z,4.32
2023-04-27T03:49:06.863Z,3.80
2023-04-27T03:49:29.659Z,4.07
2023-04-27T03:49:52.443Z,3.78
2023-04-27T03:50:16.537Z,3.80
2023-04-27T03:50:39.255Z,3.85
2023-04-27T03:51:02.178Z,4.22
2023-04-27T03:51:25.033Z,3.63
2023-04-27T03:51:47.756Z,3.97
2023-04-27T03:52:12.801Z,4.25
2023-04-27T03:52:35.531Z,4.13
2023-04-27T03:52:58.338Z,4.25
2023-04-27T03:53:21.153Z,4.55
2023-04-27T03:53:43.972Z,4.05
2023-04-27T03:54:08.201Z,4.13
2023-04-27T03:54:32.167Z,4.20
2023-04-27T03:54:57.437Z,3.97
2023-04-27T03:55:21.495Z,3.88
2023-04-27T03:55:44.608Z,3.85
2023-04-27T03:56:07.651Z,3.95
2023-04-27T03:56:30.910Z,3.97
2023-04-27T03:56:53.880Z,3.90
2023-04-27T03:57:16.692Z,4.10
2023-04-27T03:57:39.523Z,4.07
2023-04-27T03:58:02.415Z,3.85
2023-04-27T03:58:27.573Z,3.78
2023-04-27T03:58:50.343Z,3.70
2023-04-27T03:59:15.669Z,4.13
2023-04-27T03:59:38.817Z,4.28
2023-04-27T04:00:01.783Z,4.07
2023-04-27T04:00:24.859Z,4.25
2023-04-27T04:00:47.524Z,3.90
2023-04-27T04:01:10.307Z,3.95
2023-04-27T04:01:34.274Z,4.63
2023-04-27T04:01:59.560Z,4.60
2023-04-27T04:02:24.678Z,4.50
2023-04-27T04:02:47.883Z,3.90
2023-04-27T04:03:11.197Z,3.80
2023-04-27T04:03:36.799Z,4.28
2023-04-27T04:04:00.339Z,3.80
2023-04-27T04:04:26.620Z,3.80
2023-04-27T04:04:49.996Z,3.90
2023-04-27T04:05:15.007Z,3.65
2023-04-27T04:05:38.194Z,4.07
2023-04-27T04:06:00.923Z,4.35
2023-04-27T04:06:23.750Z,4.20
2023-04-27T04:06:46.571Z,3.90
2023-04-27T04:07:09.421Z,3.70
2023-04-27T04:07:32.291Z,3.72
2023-04-27T04:07:55.034Z,4.18
2023-04-27T04:08:17.959Z,4.30
2023-04-27T04:08:40.819Z,4.10
2023-04-27T04:09:04.617Z,4.03
2023-04-27T04:09:28.755Z,3.88
2023-04-27T04:09:51.679Z,3.80
2023-04-27T04:10:14.456Z,4.15
2023-04-27T04:10:37.320Z,4.00
2023-04-27T04:11:02.331Z,3.95
2023-04-27T04:11:25.219Z,3.63
2023-04-27T04:11:48.084Z,3.95
2023-04-27T04:12:10.928Z,4.40
2023-04-27T04:12:33.780Z,4.20
2023-04-27T04:12:56.552Z,4.10
2023-04-27T04:13:20.828Z,4.07
2023-04-27T04:13:44.404Z,4.25
2023-04-27T04:14:07.238Z,4.15
2023-04-27T04:14:30.113Z,4.10
2023-04-27T04:14:52.827Z,4.30
2023-04-27T04:15:15.680Z,4.05
2023-04-27T04:15:38.490Z,3.92
2023-04-27T04:16:02.831Z,4.05
2023-04-27T04:16:25.945Z,4.05
2023-04-27T04:16:48.804Z,3.75
2023-04-27T04:17:11.837Z,3.88
2023-04-27T04:17:34.996Z,3.97
2023-04-27T04:17:57.796Z,3.83
2023-04-27T04:18:20.980Z,4.00
2023-04-27T04:18:46.248Z,4.05
2023-04-27T04:19:09.617Z,4.00
2023-04-27T04:19:34.613Z,4.07
2023-04-27T04:19:57.437Z,3.65
2023-04-27T04:20:20.328Z,3.67
2023-04-27T04:20:43.114Z,4.00
2023-04-27T04:21:06.159Z,4.07
2023-04-27T04:21:31.061Z,4.30
2023-04-27T04:21:54.831Z,4.10
2023-04-27T04:22:17.784Z,4.40
2023-04-27T04:22:40.514Z,3.95
2023-04-27T04:23:03.273Z,4.13
2023-04-27T04:23:26.203Z,4.13
2023-04-27T04:23:48.958Z,4.00
2023-04-27T04:24:11.836Z,4.20
2023-04-27T04:24:36.333Z,4.60
2023-04-27T04:24:59.135Z,4.40
2023-04-27T04:25:21.946Z,4.75
2023-04-27T04:25:48.729Z,4.72
2023-04-27T04:26:11.703Z,4.30
2023-04-27T04:26:35.734Z,4.28
2023-04-27T04:26:59.062Z,4.50
2023-04-27T04:27:21.950Z,4.45
2023-04-27T04:27:44.850Z,4.45
2023-04-27T04:28:07.744Z,4.07
2023-04-27T04:28:31.205Z,4.55
2023-04-27T04:28:53.957Z,4.40
2023-04-27T04:29:16.935Z,4.43
2023-04-27T04:29:40.659Z,4.90
2023-04-27T04:30:05.429Z,3.95
2023-04-27T04:30:29.008Z,4.07
2023-04-27T04:30:52.077Z,4.28
2023-04-27T04:31:17.687Z,4.40
2023-04-27T04:31:40.569Z,4.28
2023-04-27T04:32:03.369Z,4.80
2023-04-27T04:32:31.350Z,4.38
2023-04-27T04:32:55.647Z,4.40
2023-04-27T04:33:18.701Z,4.95
2023-04-27T04:33:41.576Z,4.50
2023-04-27T04:34:04.368Z,4.72
2023-04-27T04:34:29.367Z,4.97
2023-04-27T04:34:52.170Z,5.13
2023-04-27T04:35:16.353Z,5.47
2023-04-27T04:35:39.232Z,5.82
2023-04-27T04:36:04.389Z,5.00
2023-04-27T04:36:27.122Z,5.10
2023-04-27T04:36:53.287Z,4.80
2023-04-27T04:37:16.835Z,4.90
2023-04-27T04:37:39.683Z,4.43
2023-04-27T04:38:02.384Z,4.60
2023-04-27T04:38:27.500Z,4.32
2023-04-27T04:38:50.527Z,4.20
2023-04-27T04:39:13.966Z,4.40
2023-04-27T04:39:38.655Z,4.43
2023-04-27T04:40:01.534Z,4.03
2023-04-27T04:40:24.828Z,4.20
2023-04-27T04:40:47.647Z,4.50
2023-04-27T04:41:10.833Z,4.15
2023-04-27T04:41:33.665Z,3.78
2023-04-27T04:41:56.393Z,4.30
2023-04-27T04:42:19.200Z,4.22
2023-04-27T04:42:42.070Z,4.20
2023-04-27T04:43:05.174Z,4.07
2023-04-27T04:43:28.563Z,4.00
2023-04-27T04:43:51.549Z,4.10
2023-04-27T04:44:14.412Z,4.18
2023-04-27T04:44:37.258Z,4.30
2023-04-27T04:45:00.141Z,4.30
2023-04-27T04:45:22.942Z,3.90
2023-04-27T04:45:46.115Z,3.92
2023-04-27T04:46:08.832Z,4.00
2023-04-27T04:46:31.748Z,4.43
2023-04-27T04:46:57.208Z,4.28
2023-04-27T04:47:20.154Z,4.45
2023-04-27T04:47:45.629Z,4.78
2023-04-27T04:48:08.900Z,4.57
2023-04-27T04:48:32.511Z,4.20
2023-04-27T04:48:57.845Z,4.47
2023-04-27T04:49:20.733Z,4.53
2023-04-27T04:49:43.605Z,4.80
2023-04-27T04:50:09.937Z,4.13
2023-04-27T04:50:32.823Z,4.50
2023-04-27T04:50:55.865Z,4.22
2023-04-27T04:51:18.659Z,4.40
2023-04-27T04:51:43.363Z,4.30
2023-04-27T04:52:06.273Z,4.57
2023-04-27T04:52:31.448Z,4.38
2023-04-27T04:52:57.160Z,4.15
2023-04-27T04:53:19.995Z,4.22
2023-04-27T04:53:45.291Z,3.80
2023-04-27T04:54:08.120Z,4.22
2023-04-27T04:54:31.292Z,4.28
2023-04-27T04:54:55.603Z,4.30
2023-04-27T04:55:18.582Z,4.68
2023-04-27T04:55:41.463Z,4.47
2023-04-27T04:56:12.981Z,4.50
2023-04-27T04:56:35.999Z,4.50
2023-04-27T04:56:59.385Z,4.22
2023-04-27T04:57:22.446Z,4.60
2023-04-27T04:57:45.470Z,4.68
2023-04-27T04:58:08.355Z,4.85
2023-04-27T04:58:31.199Z,4.40
2023-04-27T04:58:54.180Z,4.07
2023-04-27T04:59:17.350Z,4.20
2023-04-27T04:59:40.366Z,3.80
2023-04-27T05:00:04.178Z,3.97
2023-04-27T05:00:27.120Z,4.45
2023-04-27T05:00:49.846Z,4.22
2023-04-27T05:01:12.632Z,4.35
2023-04-27T05:01:35.572Z,4.03
2023-04-27T05:01:58.415Z,4.25
2023-04-27T05:02:21.490Z,4.25
2023-04-27T05:02:44.339Z,4.30
2023-04-27T05:03:07.840Z,4.60
2023-04-27T05:03:30.952Z,4.00
2023-04-27T05:03:56.172Z,4.40
2023-04-27T05:04:19.244Z,4.80
2023-04-27T05:04:42.281Z,4.70
2023-04-27T05:05:05.736Z,4.60
2023-04-27T05:05:31.013Z,4.43
2023-04-27T05:05:53.765Z,4.35
2023-04-27T05:06:16.514Z,4.47
2023-04-27T05:06:39.534Z,4.28
2023-04-27T05:07:04.645Z,4.40
2023-04-27T05:07:27.481Z,4.53
2023-04-27T05:07:50.362Z,4.38
2023-04-27T05:08:13.584Z,4.10
2023-04-27T05:08:37.311Z,4.50
2023-04-27T05:09:00.237Z,4.60
2023-04-27T05:09:25.512Z,4.50
2023-04-27T05:09:48.324Z,4.72
2023-04-27T05:10:12.802Z,4.63
2023-04-27T05:10:35.581Z,4.75
2023-04-27T05:11:01.441Z,4.50
2023-04-27T05:11:24.219Z,4.43
2023-04-27T05:11:47.062Z,4.45
2023-04-27T05:12:09.870Z,4.78
2023-04-27T05:12:35.753Z,4.78
2023-04-27T05:12:58.539Z,4.95
2023-04-27T05:13:21.479Z,4.80
2023-04-27T05:13:44.404Z,4.60
2023-04-27T05:14:09.542Z,4.57
2023-04-27T05:14:32.271Z,4.93
2023-04-27T05:14:55.106Z,4.68
2023-04-27T05:15:18.237Z,4.60